Time;durP1;ratioP1;P1;durP2;ratioP2;P2;SDS_P1;SDS_P2;PMS_P1;PMS_P2;Temp;Humidity;BMP_temperature;BMP_pressure;BME280_temperature;BME280_humidity;BME280_pressure;Samples;Min_cycle;Max_cycle;Signal;HPM_P1;HPM_P2
2022/07/24 00:00:58;;;;;;;;;;;;;;;-144.99;100.00;61100.13;5036821;28;20073;-77
2022/07/24 00:03:26;;;;;;;;;;;;;;;-144.99;100.00;61100.13;5044010;28;19976;-75
2022/07/24 00:05:52;;;;;;;;;;;;;;;-144.99;100.00;61100.13;5043337;28;19956;-74
2022/07/24 00:08:20;;;;;;;;;;;;;;;-144.99;100.00;61100.13;5041564;28;19937;-77
2022/07/24 00:10:47;;;;;;;;;;;;;;;-144.99;100.00;61100.13;5032845;28;20288;-76
2022/07/24 00:13:13;;;;;;;;;;;;;;;-144.99;100.00;61100.13;5056396;28;20066;-75
2022/07/24 00:15:40;;;;;;;;;;;;;;;-144.99;100.00;61100.13;5044420;28;19974;-75
2022/07/24 00:18:06;;;;;;;;;;;;;;;-144.99;100.00;61100.13;5044011;28;20015;-74
2022/07/24 00:20:33;;;;;;;;;;;;;;;-144.99;100.00;61100.13;5035038;28;19929;-77
2022/07/24 00:22:59;;;;;;;;;;;;;;;-144.99;100.00;61100.13;5042565;28;19928;-76
2022/07/24 00:25:27;;;;;;;;;;;;;;;-144.99;100.00;61100.13;5041964;28;19925;-76
2022/07/24 00:27:54;;;;;;;;;;;;;;;-144.99;100.00;61100.13;5044230;28;19929;-76
2022/07/24 00:30:20;;;;;;;;;;;;;;;-144.99;100.00;61100.13;5033526;28;19998;-74
2022/07/24 00:32:47;;;;;;;;;;;;;;;-144.99;100.00;61100.13;5044598;28;19970;-76
2022/07/24 00:35:13;;;;;;;;;;;;;;;-144.99;100.00;61100.13;5042824;28;19990;-75
2022/07/24 00:37:40;;;;;;;;;;;;;;;-144.99;100.00;61100.13;5042234;28;19933;-75
2022/07/24 00:40:07;;;;;;;;;;;;;;;-144.99;100.00;61100.13;5030212;28;20258;-75
2022/07/24 00:42:35;;;;;;;;;;;;;;;-144.99;100.00;61100.13;5042916;28;20359;-76
2022/07/24 00:45:01;;;;;;;;;;;;;;;-144.99;100.00;61100.13;5043711;28;20039;-75
2022/07/24 00:47:28;;;;;;;;;;;;;;;-144.99;100.00;61100.13;5043074;28;19975;-75
2022/07/24 00:49:54;;;;;;;;;;;;;;;-144.99;100.00;61100.13;5041408;28;19964;-75
2022/07/24 00:52:20;;;;;;;;;;;;;;;-144.99;100.00;61100.13;5043003;28;19960;-76
2022/07/24 00:54:47;;;;;;;;;;;;;;;-144.99;100.00;61100.13;5043013;28;20363;-76
2022/07/24 00:57:14;;;;;;;;;;;;;;;-144.99;100.00;61100.13;5042446;28;19933;-73
2022/07/24 00:59:41;;;;;;;;;;;;;;;-144.99;100.00;61100.13;5042967;28;19994;-76
2022/07/24 01:02:08;;;;;;;;;;;;;;;-144.99;100.00;61100.13;5040401;28;19982;-75
2022/07/24 01:04:35;;;;;;;;;;;;;;;-144.99;100.00;61100.13;5043476;28;19967;-77
2022/07/24 01:07:01;;;;;;;;;;;;;;;-144.99;100.00;61100.13;5042414;28;20058;-76
2022/07/24 01:09:28;;;;;;;;;;;;;;;-144.99;100.00;61100.13;5034056;28;19963;-76
2022/07/24 01:11:55;;;;;;;;;;;;;;;-144.99;100.00;61100.13;5035580;28;20045;-74
2022/07/24 01:14:21;;;;;;;;;;;;;;;-144.99;100.00;61100.13;5042867;28;19944;-77
2022/07/24 01:16:49;;;;;;;;;;;;;;;-144.99;100.00;61100.13;5034439;28;19968;-76
2022/07/24 01:19:16;;;;;;;;;;;;;;;-144.99;100.00;61100.13;5054650;28;19932;-77
2022/07/24 01:21:47;;;;;;;;;;;;;;;-144.99;100.00;61100.13;5047785;28;19928;-76
2022/07/24 01:24:14;;;;;;;;;;;;;;;-144.99;100.00;61100.13;5053570;28;19948;-74
2022/07/24 01:26:40;;;;;;;;;;;;;;;-144.99;100.00;61100.13;5059165;28;19932;-76
2022/07/24 01:29:07;;;;;;;;;;;;;;;-144.99;100.00;61100.13;5058913;28;19928;-76
2022/07/24 01:31:34;;;;;;;;;;;;;;;-144.99;100.00;61100.13;5052452;28;20015;-77
2022/07/24 01:34:00;;;;;;;;;;;;;;;-144.99;100.00;61100.13;5054206;28;20047;-76
2022/07/24 01:36:27;;;;;;;;;;;;;;;-144.99;100.00;61100.13;5049785;28;20221;-77
2022/07/24 01:38:55;;;;;;;;;;;;;;;-144.99;100.00;61100.13;5045157;28;19934;-73
2022/07/24 01:41:21;;;;;;;;;;;;;;;-144.99;100.00;61100.13;5061585;28;20150;-76
2022/07/24 01:43:48;;;;;;;;;;;;;;;-144.99;100.00;61100.13;5054103;28;19928;-76
2022/07/24 01:46:14;;;;;;;;;;;;;;;-144.99;100.00;61100.13;5050309;28;19970;-76
2022/07/24 01:48:42;;;;;;;;;;;;;;;-144.99;100.00;61100.13;4698418;28;9999771;-76
2022/07/24 01:51:08;;;;;;;;;;;;;;;-144.99;100.00;61100.13;5044442;28;20483;-75
2022/07/24 01:53:35;;;;;;;;;;;;;;;-144.99;100.00;61100.13;5047119;28;20440;-74
2022/07/24 01:56:03;;;;;;;;;;;;;;;-144.99;100.00;61100.13;5047291;28;19933;-74
2022/07/24 01:58:30;;;;;;;;;;;;;;;-144.99;100.00;61100.13;5050193;28;19935;-75
2022/07/24 02:00:56;;;;;;;;;;;;;;;-144.99;100.00;61100.13;5050578;28;19999;-76
2022/07/24 02:03:23;;;;;;;;;;;;;;;-144.99;100.00;61100.13;5049129;28;19925;-77
2022/07/24 02:05:50;;;;;;;;;;;;;;;-144.99;100.00;61100.13;5058480;28;19961;-77
2022/07/24 02:08:16;;;;;;;;;;;;;;;-144.99;100.00;61100.13;5069002;28;19936;-77
2022/07/24 02:10:43;;;;;;;;;;;;;;;-144.99;100.00;61100.13;5046234;28;20013;-77
2022/07/24 02:13:11;;;;;;;;;;;;;;;-144.99;100.00;61100.13;5049173;28;19986;-77
2022/07/24 02:15:37;;;;;;;;;;;;;;;-144.99;100.00;61100.13;5049665;28;19925;-77
2022/07/24 02:18:04;;;;;;;;;;;;;;;-144.99;100.00;61100.13;5051735;28;19971;-77
2022/07/24 02:20:30;;;;;;;;;;;;;;;-144.99;100.00;61100.13;5038365;28;19929;-78
2022/07/24 02:22:57;;;;;;;;;;;;;;;-144.99;100.00;61100.13;5064064;28;20399;-78
2022/07/24 02:25:23;;;;;;;;;;;;;;;-144.99;100.00;61100.13;5075285;28;19924;-79
2022/07/24 02:27:50;;;;;;;;;;;;;;;-144.99;100.00;61100.13;5067898;28;19925;-78
2022/07/24 02:30:20;;;;;;;;;;;;;;;-144.99;100.00;61100.13;5054568;28;19929;-78
2022/07/24 02:32:46;;;;;;;;;;;;;;;-144.99;100.00;61100.13;5062659;28;19948;-78
2022/07/24 02:35:13;;;;;;;;;;;;;;;-144.99;100.00;61100.13;5056310;28;20419;-77
2022/07/24 02:37:40;;;;;;;;;;;;;;;-144.99;100.00;61100.13;5051462;28;20002;-78
2022/07/24 02:40:08;;;;;;;;;;;;;;;-144.99;100.00;61100.13;5043824;28;19925;-79
2022/07/24 02:42:34;;;;;;;;;;;;;;;-144.99;100.00;61100.13;5052363;28;19968;-75
2022/07/24 02:45:01;;;;;;;;;;;;;;;-144.99;100.00;61100.13;5053222;28;19983;-78
2022/07/24 02:47:29;;;;;;;;;;;;;;;-144.99;100.00;61100.13;5052812;28;19953;-78
2022/07/24 02:49:55;;;;;;;;;;;;;;;-144.99;100.00;61100.13;5063177;22;19924;-72
2022/07/24 02:52:22;;;;;;;;;;;;;;;-144.99;100.00;61100.13;5068280;28;19955;-74
2022/07/24 02:54:48;;;;;;;;;;;;;;;-144.99;100.00;61100.13;5069601;28;20331;-73
2022/07/24 02:57:15;;;;;;;;;;;;;;;-144.99;100.00;61100.13;5068277;28;20432;-73
2022/07/24 02:59:41;;;;;;;;;;;;;;;-144.99;100.00;61100.13;5068773;28;19925;-73
2022/07/24 03:02:08;;;;;;;;;;;;;;;-144.99;100.00;61100.13;5077792;28;19935;-72
2022/07/24 03:04:36;;;;;;;;;;;;;;;-144.99;100.00;61100.13;5079327;28;19955;-73
2022/07/24 03:07:02;;;;;;;;;;;;;;;-144.99;100.00;61100.13;5078988;28;19925;-73
2022/07/24 03:09:29;;;;;;;;;;;;;;;-144.99;100.00;61100.13;5080851;28;19932;-72
2022/07/24 03:11:55;;;;;;;;;;;;;;;-144.99;100.00;61100.13;5079521;28;19924;-72
2022/07/24 03:14:22;;;;;;;;;;;;;;;-144.99;100.00;61100.13;5082793;28;19924;-72
2022/07/24 03:16:48;;;;;;;;;;;;;;;-144.99;100.00;61100.13;5073537;28;19928;-72
2022/07/24 03:19:15;;;;;;;;;;;;;;;-144.99;100.00;61100.13;5073520;28;19928;-72
2022/07/24 03:21:42;;;;;;;;;;;;;;;-144.99;100.00;61100.13;5066678;28;19928;-72
2022/07/24 03:24:09;;;;;;;;;;;;;;;-144.99;100.00;61100.13;5069154;28;20015;-72
2022/07/24 03:26:35;;;;;;;;;;;;;;;-144.99;100.00;61100.13;5067547;28;19979;-72
2022/07/24 03:29:02;;;;;;;;;;;;;;;-144.99;100.00;61100.13;5067527;28;19928;-72
2022/07/24 03:31:28;;;;;;;;;;;;;;;-144.99;100.00;61100.13;5066189;28;19934;-71
2022/07/24 03:33:55;;;;;;;;;;;;;;;-144.99;100.00;61100.13;5068948;28;20019;-71
2022/07/24 03:36:21;;;;;;;;;;;;;;;-144.99;100.00;61100.13;5066784;28;19929;-72
2022/07/24 03:38:49;;;;;;;;;;;;;;;-144.99;100.00;61100.13;5067734;28;20304;-72
2022/07/24 03:41:16;;;;;;;;;;;;;;;-144.99;100.00;61100.13;5068909;28;20480;-73
2022/07/24 03:43:42;;;;;;;;;;;;;;;-144.99;100.00;61100.13;5068773;28;20050;-71
2022/07/24 03:46:09;;;;;;;;;;;;;;;-144.99;100.00;61100.13;5069003;28;19929;-72
2022/07/24 03:48:35;;;;;;;;;;;;;;;-144.99;100.00;61100.13;5067282;28;19924;-72
2022/07/24 03:51:02;;;;;;;;;;;;;;;-144.99;100.00;61100.13;5064838;28;20139;-72
2022/07/24 03:53:28;;;;;;;;;;;;;;;-144.99;100.00;61100.13;5066095;28;20010;-73
2022/07/24 03:55:56;;;;;;;;;;;;;;;-144.99;100.00;61100.13;5068034;28;19928;-73
2022/07/24 03:58:23;;;;;;;;;;;;;;;-144.99;100.00;61100.13;5065582;28;20386;-73
2022/07/24 04:00:49;;;;;;;;;;;;;;;-144.99;100.00;61100.13;5067403;28;20470;-73
2022/07/24 04:03:16;;;;;;;;;;;;;;;-144.99;100.00;61100.13;5067739;28;19993;-73
2022/07/24 04:05:42;;;;;;;;;;;;;;;-144.99;100.00;61100.13;5066739;28;20415;-73
2022/07/24 04:08:09;;;;;;;;;;;;;;;-144.99;100.00;61100.13;5066557;28;19924;-74
2022/07/24 04:10:35;;;;;;;;;;;;;;;-144.99;100.00;61100.13;5067692;28;19956;-74
2022/07/24 04:13:03;;;;;;;;;;;;;;;-144.99;100.00;61100.13;5067247;28;19924;-74
2022/07/24 04:15:29;;;;;;;;;;;;;;;-144.99;100.00;61100.13;5068301;28;20024;-74
2022/07/24 04:17:56;;;;;;;;;;;;;;;-144.99;100.00;61100.13;5067000;28;20057;-72
2022/07/24 04:20:23;;;;;;;;;;;;;;;-144.99;100.00;61100.13;5065033;28;20393;-72
2022/07/24 04:22:49;;;;;;;;;;;;;;;-144.99;100.00;61100.13;5067013;28;19985;-73
2022/07/24 04:25:16;;;;;;;;;;;;;;;-144.99;100.00;61100.13;5067849;28;19935;-73
2022/07/24 04:27:43;;;;;;;;;;;;;;;-144.99;100.00;61100.13;5067254;28;19964;-72
2022/07/24 04:30:12;;;;;;;;;;;;;;;-144.99;100.00;61100.13;5059195;28;20003;-73
2022/07/24 04:32:38;;;;;;;;;;;;;;;-144.99;100.00;61100.13;5066501;28;20076;-73
2022/07/24 04:35:06;;;;;;;;;;;;;;;-144.99;100.00;61100.13;5065749;28;19939;-72
2022/07/24 04:37:32;;;;;;;;;;;;;;;-144.99;100.00;61100.13;5067715;28;20062;-72
2022/07/24 04:39:59;;;;;;;;;;;;;;;-144.99;100.00;61100.13;5066141;28;19960;-72
2022/07/24 04:42:25;;;;;;;;;;;;;;;-144.99;100.00;61100.13;5066859;28;19925;-72
2022/07/24 04:44:52;;;;;;;;;;;;;;;-144.99;100.00;61100.13;5067810;28;19929;-72
2022/07/24 04:47:20;;;;;;;;;;;;;;;-144.99;100.00;61100.13;5067837;28;19981;-72
2022/07/24 04:49:46;;;;;;;;;;;;;;;-144.99;100.00;61100.13;5064835;28;19990;-73
2022/07/24 04:52:13;;;;;;;;;;;;;;;-144.99;100.00;61100.13;5066338;28;19938;-73
2022/07/24 04:54:39;;;;;;;;;;;;;;;-144.99;100.00;61100.13;5067211;28;19925;-72
2022/07/24 04:57:06;;;;;;;;;;;;;;;-144.99;100.00;61100.13;5062843;28;19925;-73
2022/07/24 04:59:32;;;;;;;;;;;;;;;-144.99;100.00;61100.13;5065296;28;20669;-72
2022/07/24 05:01:59;;;;;;;;;;;;;;;-144.99;100.00;61100.13;5065990;28;19986;-73
2022/07/24 05:04:26;;;;;;;;;;;;;;;-144.99;100.00;61100.13;5067577;28;20272;-73
2022/07/24 05:06:53;;;;;;;;;;;;;;;-144.99;100.00;61100.13;5065299;28;20450;-74
2022/07/24 05:09:19;;;;;;;;;;;;;;;-144.99;100.00;61100.13;5066169;28;19970;-74
2022/07/24 05:11:46;;;;;;;;;;;;;;;-144.99;100.00;61100.13;5065556;28;19994;-73
2022/07/24 05:14:12;;;;;;;;;;;;;;;-144.99;100.00;61100.13;5057841;28;20444;-74
2022/07/24 05:16:39;;;;;;;;;;;;;;;-144.99;100.00;61100.13;5066702;28;19970;-74
2022/07/24 05:19:05;;;;;;;;;;;;;;;-144.99;100.00;61100.13;5078507;28;19932;-73
2022/07/24 05:21:33;;;;;;;;;;;;;;;-144.99;100.00;61100.13;5063125;28;20674;-73
2022/07/24 05:24:01;;;;;;;;;;;;;;;-144.99;100.00;61100.13;5077651;28;20635;-72
2022/07/24 05:26:27;;;;;;;;;;;;;;;-144.99;100.00;61100.13;5074289;28;19947;-72
2022/07/24 05:28:54;;;;;;;;;;;;;;;-144.99;100.00;61100.13;5068264;28;19924;-72
2022/07/24 05:31:20;;;;;;;;;;;;;;;-144.99;100.00;61100.13;5064210;28;20340;-73
2022/07/24 05:33:47;;;;;;;;;;;;;;;-144.99;100.00;61100.13;5066776;28;19928;-72
2022/07/24 05:36:13;;;;;;;;;;;;;;;-144.99;100.00;61100.13;5065248;28;19924;-73
2022/07/24 05:38:41;;;;;;;;;;;;;;;-144.99;100.00;61100.13;5069817;28;19976;-72
2022/07/24 05:41:08;;;;;;;;;;;;;;;-144.99;100.00;61100.13;5068705;28;19932;-72
2022/07/24 05:43:34;;;;;;;;;;;;;;;-144.99;100.00;61100.13;5068818;28;19924;-72
2022/07/24 05:46:01;;;;;;;;;;;;;;;-144.99;100.00;61100.13;5070485;28;19936;-72
2022/07/24 05:48:27;;;;;;;;;;;;;;;-144.99;100.00;61100.13;5068529;28;20445;-73
2022/07/24 05:50:54;;;;;;;;;;;;;;;-144.99;100.00;61100.13;5068503;28;20051;-73
2022/07/24 05:53:21;;;;;;;;;;;;;;;-144.99;100.00;61100.13;5067489;28;19928;-72
2022/07/24 05:55:48;;;;;;;;;;;;;;;-144.99;100.00;61100.13;5068115;28;20284;-72
2022/07/24 05:58:15;;;;;;;;;;;;;;;-144.99;100.00;61100.13;5064784;28;19963;-72
2022/07/24 06:00:42;;;;;;;;;;;;;;;-144.99;100.00;61100.13;5066310;28;20154;-73
2022/07/24 06:03:08;;;;;;;;;;;;;;;-144.99;100.00;61100.13;5065995;28;20379;-73
2022/07/24 06:05:35;;;;;;;;;;;;;;;-144.99;100.00;61100.13;5064722;28;20014;-72
2022/07/24 06:08:01;;;;;;;;;;;;;;;-144.99;100.00;61100.13;5064350;28;19944;-73
2022/07/24 06:10:28;;;;;;;;;;;;;;;-144.99;100.00;61100.13;5066940;28;19925;-73
2022/07/24 06:12:56;;;;;;;;;;;;;;;-144.99;100.00;61100.13;5065871;28;19951;-73
2022/07/24 06:15:22;;;;;;;;;;;;;;;-144.99;100.00;61100.13;5066040;28;20425;-73
2022/07/24 06:17:49;;;;;;;;;;;;;;;-144.99;100.00;61100.13;5069324;28;19929;-73
2022/07/24 06:20:16;;;;;;;;;;;;;;;-144.99;100.00;61100.13;5063992;28;19978;-73
2022/07/24 06:22:43;;;;;;;;;;;;;;;-144.99;100.00;61100.13;5066446;28;19925;-72
2022/07/24 06:25:10;;;;;;;;;;;;;;;-144.99;100.00;61100.13;5066465;28;19936;-73
2022/07/24 06:27:40;;;;;;;;;;;;;;;-144.99;100.00;61100.13;5066643;28;19925;-73
2022/07/24 06:30:13;;;;;;;;;;;;;;;-144.99;100.00;61100.13;5055487;28;20359;-72
2022/07/24 06:32:39;;;;;;;;;;;;;;;-144.99;100.00;61100.13;5065449;28;19925;-72
2022/07/24 06:35:06;;;;;;;;;;;;;;;-144.99;100.00;61100.13;5067666;28;19928;-73
2022/07/24 06:37:33;;;;;;;;;;;;;;;-144.99;100.00;61100.13;5070104;28;19924;-72
2022/07/24 06:39:59;;;;;;;;;;;;;;;-144.99;100.00;61100.13;5068057;28;19971;-73
2022/07/24 06:42:26;;;;;;;;;;;;;;;-144.99;100.00;61100.13;5069360;28;20440;-74
2022/07/24 06:44:52;;;;;;;;;;;;;;;-144.99;100.00;61100.13;5069483;28;20007;-72
2022/07/24 06:47:20;;;;;;;;;;;;;;;-144.99;100.00;61100.13;5067623;28;19924;-72
2022/07/24 06:49:47;;;;;;;;;;;;;;;-144.99;100.00;61100.13;5068699;28;19993;-72
2022/07/24 06:52:13;;;;;;;;;;;;;;;-144.99;100.00;61100.13;5067583;28;19924;-71
2022/07/24 06:54:41;;;;;;;;;;;;;;;-144.99;100.00;61100.13;5069031;28;20356;-70
2022/07/24 06:57:08;;;;;;;;;;;;;;;-144.99;100.00;61100.13;5064104;28;19924;-72
2022/07/24 06:59:34;;;;;;;;;;;;;;;-144.99;100.00;61100.13;5067990;28;19925;-72
2022/07/24 07:02:00;;;;;;;;;;;;;;;-144.99;100.00;61100.13;5067665;28;20368;-71
2022/07/24 07:04:28;;;;;;;;;;;;;;;-144.99;100.00;61100.13;5069054;28;19925;-71
2022/07/24 07:06:55;;;;;;;;;;;;;;;-144.99;100.00;61100.13;5067770;28;19924;-71
2022/07/24 07:09:21;;;;;;;;;;;;;;;-144.99;100.00;61100.13;5066844;28;20307;-71
2022/07/24 07:11:48;;;;;;;;;;;;;;;-144.99;100.00;61100.13;5069189;28;20019;-71
2022/07/24 07:14:15;;;;;;;;;;;;;;;-144.99;100.00;61100.13;5059216;28;20006;-72
2022/07/24 07:16:41;;;;;;;;;;;;;;;-144.99;100.00;61100.13;5068823;28;19966;-73
2022/07/24 07:19:07;;;;;;;;;;;;;;;-144.99;100.00;61100.13;5067885;28;20403;-73
2022/07/24 07:21:36;;;;;;;;;;;;;;;-144.99;100.00;61100.13;5069859;28;19928;-73
2022/07/24 07:24:02;;;;;;;;;;;;;;;-144.99;100.00;61100.13;5074456;28;20030;-74
2022/07/24 07:26:29;;;;;;;;;;;;;;;-144.99;100.00;61100.13;5077213;28;19925;-74
2022/07/24 07:28:55;;;;;;;;;;;;;;;-144.99;100.00;61100.13;5063091;28;19936;-73
2022/07/24 07:31:24;;;;;;;;;;;;;;;-144.99;100.00;61100.13;5066054;28;19928;-74
2022/07/24 07:33:50;;;;;;;;;;;;;;;-144.99;100.00;61100.13;5072176;28;19963;-73
2022/07/24 07:36:17;;;;;;;;;;;;;;;-144.99;100.00;61100.13;5065238;28;19936;-74
2022/07/24 07:38:44;;;;;;;;;;;;;;;-144.99;100.00;61100.13;5065100;28;20065;-73
2022/07/24 07:41:11;;;;;;;;;;;;;;;-144.99;100.00;61100.13;5064981;28;20015;-74
2022/07/24 07:43:38;;;;;;;;;;;;;;;-144.99;100.00;61100.13;5065040;28;20339;-73
2022/07/24 07:46:05;;;;;;;;;;;;;;;-144.99;100.00;61100.13;5055095;28;19983;-73
2022/07/24 07:48:31;;;;;;;;;;;;;;;-144.99;100.00;61100.13;5066312;28;20100;-73
2022/07/24 07:50:58;;;;;;;;;;;;;;;-144.99;100.00;61100.13;5062918;28;19929;-72
2022/07/24 07:53:24;;;;;;;;;;;;;;;-144.99;100.00;61100.13;5063625;28;19967;-72
2022/07/24 07:55:52;;;;;;;;;;;;;;;-144.99;100.00;61100.13;5063642;28;19971;-73
2022/07/24 07:58:19;;;;;;;;;;;;;;;-144.99;100.00;61100.13;5066106;28;20343;-74
2022/07/24 08:00:46;;;;;;;;;;;;;;;-144.99;100.00;61100.13;5056874;28;20005;-73
2022/07/24 08:03:12;;;;;;;;;;;;;;;-144.99;100.00;61100.13;5064341;28;19975;-73
2022/07/24 08:05:39;;;;;;;;;;;;;;;-144.99;100.00;61100.13;5063465;28;20015;-74
2022/07/24 08:08:06;;;;;;;;;;;;;;;-144.99;100.00;61100.13;5065329;28;19971;-73
2022/07/24 08:10:32;;;;;;;;;;;;;;;-144.99;100.00;61100.13;5065490;28;19948;-74
2022/07/24 08:13:00;;;;;;;;;;;;;;;-144.99;100.00;61100.13;5064605;28;19932;-74
2022/07/24 08:15:27;;;;;;;;;;;;;;;-144.99;100.00;61100.13;5065021;28;19928;-73
2022/07/24 08:17:53;;;;;;;;;;;;;;;-144.99;100.00;61100.13;5064974;28;19924;-73
2022/07/24 08:20:20;;;;;;;;;;;;;;;-144.99;100.00;61100.13;5063934;28;19928;-73
2022/07/24 08:22:47;;;;;;;;;;;;;;;-144.99;100.00;61100.13;5066347;28;19928;-74
2022/07/24 08:25:13;;;;;;;;;;;;;;;-144.99;100.00;61100.13;5065422;28;20015;-74
2022/07/24 08:27:40;;;;;;;;;;;;;;;-144.99;100.00;61100.13;5062777;28;20023;-73
2022/07/24 08:30:09;;;;;;;;;;;;;;;-144.99;100.00;61100.13;5059616;28;19962;-74
2022/07/24 08:32:35;;;;;;;;;;;;;;;-144.99;100.00;61100.13;5064864;28;19936;-73
2022/07/24 08:35:02;;;;;;;;;;;;;;;-144.99;100.00;61100.13;5063594;28;20463;-73
2022/07/24 08:37:28;;;;;;;;;;;;;;;-144.99;100.00;61100.13;5062928;28;20405;-72
2022/07/24 08:39:55;;;;;;;;;;;;;;;-144.99;100.00;61100.13;5064757;28;19990;-74
2022/07/24 08:42:22;;;;;;;;;;;;;;;-144.99;100.00;61100.13;5065022;28;20238;-73
2022/07/24 08:44:48;;;;;;;;;;;;;;;-144.99;100.00;61100.13;5065185;28;19967;-72
2022/07/24 08:47:16;;;;;;;;;;;;;;;-144.99;100.00;61100.13;5067224;28;19936;-74
2022/07/24 08:49:45;;;;;;;;;;;;;;;-144.99;100.00;61100.13;5096374;22;19994;-74
2022/07/24 08:52:11;;;;;;;;;;;;;;;-144.99;100.00;61100.13;5057236;28;19954;-76
2022/07/24 08:54:38;;;;;;;;;;;;;;;-144.99;100.00;61100.13;5064933;28;19928;-76
2022/07/24 08:57:04;;;;;;;;;;;;;;;-144.99;100.00;61100.13;5062719;28;20050;-72
2022/07/24 08:59:32;;;;;;;;;;;;;;;-144.99;100.00;61100.13;4707581;28;10000378;-74
2022/07/24 09:01:59;;;;;;;;;;;;;;;-144.99;100.00;61100.13;5061663;28;19924;-75
2022/07/24 09:04:33;;;;;;;;;;;;;;;-144.99;100.00;61100.13;5063725;28;19951;-74
2022/07/24 09:07:00;;;;;;;;;;;;;;;-144.99;100.00;61100.13;5056057;28;20640;-71
2022/07/24 09:09:26;;;;;;;;;;;;;;;-144.99;100.00;61100.13;5061110;28;20289;-72
2022/07/24 09:12:02;;;;;;;;;;;;;;;-144.99;100.00;61100.13;5062912;28;19939;-73
2022/07/24 09:14:31;;;;;;;;;;;;;;;-144.99;100.00;61100.13;5062429;28;20342;-73
2022/07/24 09:17:02;;;;;;;;;;;;;;;-144.99;100.00;61100.13;5063027;28;19977;-72
2022/07/24 09:19:28;;;;;;;;;;;;;;;-144.99;100.00;61100.13;5064473;28;19924;-75
2022/07/24 09:21:56;;;;;;;;;;;;;;;-144.99;100.00;61100.13;5058603;28;19939;-78
2022/07/24 09:24:23;;;;;;;;;;;;;;;-144.99;100.00;61100.13;5063918;28;19983;-78
2022/07/24 09:26:50;;;;;;;;;;;;;;;-144.99;100.00;61100.13;5062828;28;20335;-79
2022/07/24 09:29:17;;;;;;;;;;;;;;;-144.99;100.00;61100.13;5061925;28;20380;-78
2022/07/24 09:31:50;;;;;;;;;;;;;;;-144.99;100.00;61100.13;5062150;28;20007;-78
2022/07/24 09:34:17;;;;;;;;;;;;;;;-144.99;100.00;61100.13;5060494;28;20019;-78
2022/07/24 09:36:51;;;;;;;;;;;;;;;-144.99;100.00;61100.13;5056827;28;20419;-75
2022/07/24 09:39:20;;;;;;;;;;;;;;;-144.99;100.00;61100.13;5060511;28;20209;-75
2022/07/24 09:41:50;;;;;;;;;;;;;;;-144.99;100.00;61100.13;5061182;28;20005;-77
2022/07/24 09:44:17;;;;;;;;;;;;;;;-144.99;100.00;61100.13;5056384;28;20023;-78
2022/07/24 09:46:46;;;;;;;;;;;;;;;-144.99;100.00;61100.13;5059537;28;19934;-77
2022/07/24 09:49:19;;;;;;;;;;;;;;;-144.99;100.00;61100.13;5058790;28;19928;-78
2022/07/24 09:51:47;;;;;;;;;;;;;;;-144.99;100.00;61100.13;5055221;28;19934;-79
2022/07/24 09:54:28;;;;;;;;;;;;;;;-144.99;100.00;61100.13;5062043;28;19935;-76
2022/07/24 09:57:14;;;;;;;;;;;;;;;-144.99;100.00;61100.13;5059925;28;19998;-75
2022/07/24 09:59:41;;;;;;;;;;;;;;;-144.99;100.00;61100.13;5050401;28;19968;-78
2022/07/24 10:02:08;;;;;;;;;;;;;;;-144.99;100.00;61100.13;5060281;28;20431;-74
2022/07/24 10:04:35;;;;;;;;;;;;;;;-144.99;100.00;61100.13;5061652;28;20017;-78
2022/07/24 10:07:03;;;;;;;;;;;;;;;-144.99;100.00;61100.13;5059882;28;20444;-76
2022/07/24 10:09:30;;;;;;;;;;;;;;;-144.99;100.00;61100.13;5058633;28;19985;-74
2022/07/24 10:11:58;;;;;;;;;;;;;;;-144.99;100.00;61100.13;5065078;28;19924;-75
2022/07/24 10:14:25;;;;;;;;;;;;;;;-144.99;100.00;61100.13;5064043;28;19928;-75
2022/07/24 10:17:01;;;;;;;;;;;;;;;-144.99;100.00;61100.13;5062298;28;19964;-77
2022/07/24 10:19:32;;;;;;;;;;;;;;;-144.99;100.00;61100.13;5061604;28;20262;-76
2022/07/24 10:22:01;;;;;;;;;;;;;;;-144.99;100.00;61100.13;5065250;28;20013;-77
2022/07/24 10:24:43;;;;;;;;;;;;;;;-144.99;100.00;61100.13;5067905;28;19935;-76
2022/07/24 10:27:21;;;;;;;;;;;;;;;-144.99;100.00;61100.13;5055925;28;19994;-76
2022/07/24 10:29:48;;;;;;;;;;;;;;;-144.99;100.00;61100.13;5063344;28;20011;-76
2022/07/24 10:32:15;;;;;;;;;;;;;;;-144.99;100.00;61100.13;5066565;28;19962;-76
2022/07/24 10:34:47;;;;;;;;;;;;;;;-144.99;100.00;61100.13;5071563;28;19932;-78
2022/07/24 10:37:22;;;;;;;;;;;;;;;-144.99;100.00;61100.13;5078178;28;19980;-80
2022/07/24 10:39:55;;;;;;;;;;;;;;;-144.99;100.00;61100.13;5067811;28;19928;-79
2022/07/24 10:42:23;;;;;;;;;;;;;;;-144.99;100.00;61100.13;5066831;28;19932;-78
2022/07/24 10:45:04;;;;;;;;;;;;;;;-144.99;100.00;61100.13;5067721;28;20403;-78
2022/07/24 10:47:32;;;;;;;;;;;;;;;-144.99;100.00;61100.13;5064432;28;20443;-77
2022/07/24 10:50:00;;;;;;;;;;;;;;;-144.99;100.00;61100.13;5063102;28;19932;-79
2022/07/24 10:52:28;;;;;;;;;;;;;;;-144.99;100.00;61100.13;5056478;28;19935;-78
2022/07/24 10:55:13;;;;;;;;;;;;;;;-144.99;100.00;61100.13;5061748;28;19929;-79
2022/07/24 10:57:48;;;;;;;;;;;;;;;-144.99;100.00;61100.13;5059653;28;19928;-78
2022/07/24 11:00:24;;;;;;;;;;;;;;;-144.99;100.00;61100.13;5060669;28;20042;-78
2022/07/24 11:03:02;;;;;;;;;;;;;;;-144.99;100.00;61100.13;5067846;28;20415;-77
2022/07/24 11:05:33;;;;;;;;;;;;;;;-144.99;100.00;61100.13;5064680;28;20284;-78
2022/07/24 11:08:18;;;;;;;;;;;;;;;-144.99;100.00;61100.13;5064658;28;20350;-74
2022/07/24 11:10:45;;;;;;;;;;;;;;;-144.99;100.00;61100.13;5060984;28;19929;-75
2022/07/24 11:13:27;;;;;;;;;;;;;;;-144.99;100.00;61100.13;5065012;28;19932;-77
2022/07/24 11:16:17;;;;;;;;;;;;;;;-144.99;100.00;61100.13;5066011;28;19928;-79
2022/07/24 11:19:03;;;;;;;;;;;;;;;-144.99;100.00;61100.13;5060705;28;19958;-77
2022/07/24 11:21:33;;;;;;;;;;;;;;;-144.99;100.00;61100.13;5063924;28;19933;-77
2022/07/24 11:24:16;;;;;;;;;;;;;;;-144.99;100.00;61100.13;5066820;28;19938;-78
2022/07/24 11:26:46;;;;;;;;;;;;;;;-144.99;100.00;61100.13;5066651;28;19931;-78
2022/07/24 11:29:13;;;;;;;;;;;;;;;-144.99;100.00;61100.13;5063337;28;20407;-76
2022/07/24 11:31:40;;;;;;;;;;;;;;;-144.99;100.00;61100.13;5065543;28;20023;-76
2022/07/24 11:34:09;;;;;;;;;;;;;;;-144.99;100.00;61100.13;5067005;28;19932;-77
2022/07/24 11:36:37;;;;;;;;;;;;;;;-144.99;100.00;61100.13;5062590;28;20001;-77
2022/07/24 11:39:04;;;;;;;;;;;;;;;-144.99;100.00;61100.13;5065916;28;19967;-79
2022/07/24 11:41:44;;;;;;;;;;;;;;;-144.99;100.00;61100.13;5059341;28;20121;-77
2022/07/24 11:44:10;;;;;;;;;;;;;;;-144.99;100.00;61100.13;5059865;28;19928;-78
2022/07/24 11:46:39;;;;;;;;;;;;;;;-144.99;100.00;61100.13;5063563;28;20539;-79
2022/07/24 11:49:06;;;;;;;;;;;;;;;-144.99;100.00;61100.13;5065673;28;19933;-79
2022/07/24 11:51:33;;;;;;;;;;;;;;;-144.99;100.00;61100.13;5059917;28;19951;-79
2022/07/24 11:54:02;;;;;;;;;;;;;;;-144.99;100.00;61100.13;5055928;28;19933;-78
2022/07/24 11:56:30;;;;;;;;;;;;;;;-144.99;100.00;61100.13;5059872;28;19935;-77
2022/07/24 11:58:57;;;;;;;;;;;;;;;-144.99;100.00;61100.13;5062612;28;19952;-79
2022/07/24 12:01:24;;;;;;;;;;;;;;;-144.99;100.00;61100.13;5062800;28;20039;-78
2022/07/24 12:03:52;;;;;;;;;;;;;;;-144.99;100.00;61100.13;5060367;28;19928;-78
2022/07/24 12:06:18;;;;;;;;;;;;;;;-144.99;100.00;61100.13;5062594;28;19935;-77
2022/07/24 12:08:45;;;;;;;;;;;;;;;-144.99;100.00;61100.13;5058236;28;20401;-78
2022/07/24 12:11:20;;;;;;;;;;;;;;;-144.99;100.00;61100.13;5059133;28;19936;-79
2022/07/24 12:13:47;;;;;;;;;;;;;;;-144.99;100.00;61100.13;5055805;28;19936;-76
2022/07/24 12:16:15;;;;;;;;;;;;;;;-144.99;100.00;61100.13;5058854;28;19998;-75
2022/07/24 12:18:41;;;;;;;;;;;;;;;-144.99;100.00;61100.13;5055726;28;19928;-78
2022/07/24 12:21:09;;;;;;;;;;;;;;;-144.99;100.00;61100.13;5063372;28;19940;-79